Aérodrome :
LOGIN :

S'inscrire | Disclaimer

   EN    FR    IT 

 










Légende :    VFR   VFR Marginal   IFR   IFR Intensif   IFR Très Intensif
Visi : 
Plafond : 
>= 8 km
>= 3000ft
5 à 8 km
1000 à 3000 ft
1500m à 5 km
500 à 1000 ft
800 à 1500m
200 à 500 ft
< 800m
< 200 ft
Symboles :   Orages  Brouillard  Fortes neiges  Fortes précipitations  Vent > 20 kt
SIGMETs :   Divers  Orages  Givrage  Turbulence  Onde Orograph.  Cendres Volcan.






- Altitude de l'aérodrome : 6 ft
- Code IATA : PSA


LIRP - Galileo Galilei Pisa

DERNIER METAR :
  • 090915Z 12006KT 9999 SCT060 12/06 Q1013 NOSIG

METARs EXPIRÉS :
  • 090845Z 12009KT 9999 SCT060 11/06 Q1012 NOSIG
  • 090815Z 11008KT 9999 SCT060 10/06 Q1012 NOSIG
  • 090745Z 15004KT 110V180 9999 SCT060 09/06 Q1012 NOSIG
  • 090715Z 20005KT 9999 FEW060 07/05 Q1013 NOSIG
  • 090645Z 22003KT 9999 FEW060 08/05 Q1013 NOSIG
  • 090615Z 20002KT 9999 FEW060 09/05 Q1012 NOSIG

TAF TAF LIRP
Valide du 09 à 06h jusqu'au 10 à 06h UTC


090500Z 0906/1006 13010KT 9999 SCT060



MET'MAP, la Météo Aéronautique d'un coup d'oeil ! - Copyright ORBIFLY Décembre 2007 - Disclaimer

ORBIFLY MET'MAP TEAM :

Programmation & Développement : Alexandra Zaïnal
Sur une idée originale de : Baudouin d'Aumeries
Assistance à la programmation : Marc-Olivier Méhu
Soutien technique & logistique : Manuel Goepfert

Contact : metmap@orbifly.com




SOURCES & CREDITS :

   NOAA